TAF KOAJ
KOAJ 280526Z 2806/2906 00000KT P6SM SCT250 FM281200 23006KT P6SM SCT250 FM281700 23008G13KT P6SM SCT250 FM290000 26004KT P6SM BKN250 AMD LTD TO CLD VIS AND WIND=
METAR KOAJ
WC KOAJ
WS KOAJ
WV KOAJ